^^
Station Historical Data
Daily Summary for May 18, 2018 Units:  Metric    English   Both
« Previous Day
Next Day »
Daily Weekly Monthly Yearly Custom
  High: Low: Average:
Temperature: -17.8 °C -0.2 °C 9.6 °C
Dew Point: -17.8 °C -3.6 °C -1.5 °C
Humidity: Humidity % 24 % 51 %
Wind Speed: 0 km/h 0 km/h 0.2 km/h
Wind Gust: 0 km/h - -
Wind:- - ESE
Pressure: 0 hPa 1024.9 hPa -
Precipitation: 0 mm    
Historical Graphs
 
 
Tabular Data for May 18, 2018
Time Temperature Dew Point Pressure Wind Wind Speed Wind Gust Humidity Rainfall Rate (Hourly) solar Conditions
-17.8 °C -17.8 °C 0 hPa Calm     Humidity % 0 mm SoftwareType W/m2 Conditions
00:04 5.7 °C 1.1 °C 1024.9 hPa Calm     72 % 0 mm WeatherDisplay:10.37 W/m2 FEW
00:09 5.6 °C 0.9 °C 1024.9 hPa Calm     72 % 0 mm WeatherDisplay:10.37 W/m2 FEW
00:14 5.5 °C 0.8 °C 1025.3 hPa Calm     72 % 0 mm WeatherDisplay:10.37 W/m2 FEW
00:19 5.4 °C 0.7 °C 1025.3 hPa Calm     72 % 0 mm WeatherDisplay:10.37 W/m2 FEW
00:24 5.3 °C 0.6 °C 1025.3 hPa Calm     72 % 0 mm WeatherDisplay:10.37 W/m2 FEW
00:29 5.2 °C 0.6 °C 1025.6 hPa Calm     72 % 0 mm WeatherDisplay:10.37 W/m2 FEW
00:34 5.1 °C 0.6 °C 1025.6 hPa Calm     73 % 0 mm WeatherDisplay:10.37 W/m2 FEW
00:39 4.9 °C 0.5 °C 1025.6 hPa Calm     73 % 0 mm WeatherDisplay:10.37 W/m2 FEW
00:44 4.8 °C 0.4 °C 1025.6 hPa Calm     73 % 0 mm WeatherDisplay:10.37 W/m2 FEW
00:49 4.7 °C 0.3 °C 1025.6 hPa Calm     73 % 0 mm WeatherDisplay:10.37 W/m2 FEW
00:54 4.6 °C 0.2 °C 1025.6 hPa Calm     73 % 0 mm WeatherDisplay:10.37 W/m2 FEW
00:59 4.5 °C 0.1 °C 1025.6 hPa Calm     73 % 0 mm WeatherDisplay:10.37 W/m2 FEW
01:04 4.4 °C 0 °C 1025.6 hPa Calm     73 % 0 mm WeatherDisplay:10.37 W/m2 FEW
01:09 4.3 °C -0.1 °C 1026 hPa Calm     73 % 0 mm WeatherDisplay:10.37 W/m2 FEW
01:14 4.2 °C -0.2 °C 1026 hPa Calm     73 % 0 mm WeatherDisplay:10.37 W/m2 FEW
01:19 4.1 °C -0.3 °C 1026 hPa Calm     73 % 0 mm WeatherDisplay:10.37 W/m2 FEW
01:24 4 °C -0.4 °C 1026.3 hPa Calm     73 % 0 mm WeatherDisplay:10.37 W/m2 FEW
01:29 3.9 °C -0.5 °C 1026.3 hPa Calm     73 % 0 mm WeatherDisplay:10.37 W/m2 FEW
01:34 3.8 °C -0.7 °C 1026.3 hPa Calm     73 % 0 mm WeatherDisplay:10.37 W/m2 FEW
01:39 3.7 °C -0.6 °C 1026.6 hPa Calm     74 % 0 mm WeatherDisplay:10.37 W/m2 FEW
01:44 3.6 °C -0.7 °C 1026.6 hPa Calm     74 % 0 mm WeatherDisplay:10.37 W/m2 FEW
01:49 3.4 °C -0.6 °C 1026.6 hPa Calm     75 % 0 mm WeatherDisplay:10.37 W/m2 FEW
01:54 3.4 °C -0.6 °C 1026.6 hPa Calm     75 % 0 mm WeatherDisplay:10.37 W/m2 FEW
01:59 3.3 °C -0.7 °C 1026.6 hPa Calm     75 % 0 mm WeatherDisplay:10.37 W/m2 FEW
02:04 3.2 °C -0.6 °C 1026.6 hPa Calm     76 % 0 mm WeatherDisplay:10.37 W/m2 FEW
02:09 3.1 °C -0.9 °C 1026.6 hPa Calm   1.6 km/h 75 % 0 mm WeatherDisplay:10.37 W/m2 FEW
02:14 3.1 °C -1.2 °C 1026.6 hPa Calm     74 % 0 mm WeatherDisplay:10.37 W/m2 FEW
02:19 2.9 °C -1.4 °C 1026.6 hPa Calm     73 % 0 mm WeatherDisplay:10.37 W/m2 FEW
02:24 2.9 °C -1.4 °C 1026.6 hPa Calm     73 % 0 mm WeatherDisplay:10.37 W/m2 FEW
02:29 2.9 °C -1.2 °C 1027 hPa Calm     74 % 0 mm WeatherDisplay:10.37 W/m2 FEW
02:34 2.9 °C -1.2 °C 1027 hPa Calm     74 % 0 mm WeatherDisplay:10.37 W/m2 FEW
02:39 2.9 °C -1.4 °C 1027 hPa Calm     73 % 0 mm WeatherDisplay:10.37 W/m2 FEW
02:44 2.9 °C -1.4 °C 1027 hPa Calm     73 % 0 mm WeatherDisplay:10.37 W/m2 FEW
02:49 2.9 °C -1.6 °C 1027 hPa Calm     72 % 0 mm WeatherDisplay:10.37 W/m2 FEW
02:54 2.9 °C -1.5 °C 1027 hPa Calm     73 % 0 mm WeatherDisplay:10.37 W/m2 FEW
02:59 2.8 °C -1.6 °C 1027 hPa Calm     73 % 0 mm WeatherDisplay:10.37 W/m2 FEW
03:04 2.8 °C -1.4 °C 1027 hPa Calm     74 % 0 mm WeatherDisplay:10.37 W/m2 FEW
03:09 2.7 °C -1.4 °C 1027 hPa Calm   1.6 km/h 74 % 0 mm WeatherDisplay:10.37 W/m2 FEW
03:14 2.7 °C -1.3 °C 1027 hPa Calm     75 % 0 mm WeatherDisplay:10.37 W/m2 FEW
03:19 2.6 °C -1.4 °C 1027 hPa Calm     75 % 0 mm WeatherDisplay:10.37 W/m2 FEW
03:24 2.5 °C -1.7 °C 1027 hPa Calm     74 % 0 mm WeatherDisplay:10.37 W/m2 FEW
03:29 2.4 °C -1.7 °C 1027 hPa Calm     74 % 0 mm WeatherDisplay:10.37 W/m2 FEW
03:34 2.3 °C -1.7 °C 1027.3 hPa Calm     75 % 0 mm WeatherDisplay:10.37 W/m2 FEW
03:39 2.3 °C -1.7 °C 1027.3 hPa Calm     75 % 0 mm WeatherDisplay:10.37 W/m2 FEW
03:44 2.2 °C -1.8 °C 1027.3 hPa Calm     75 % 0 mm WeatherDisplay:10.37 W/m2 FEW
03:49 2.1 °C -1.7 °C 1027.3 hPa Calm     76 % 0 mm WeatherDisplay:10.37 W/m2 FEW
03:54 2 °C -1.8 °C 1027.7 hPa Calm     76 % 0 mm WeatherDisplay:10.37 W/m2 FEW
03:59 1.9 °C -1.9 °C 1027.7 hPa Calm     76 % 0 mm WeatherDisplay:10.37 W/m2 FEW
04:04 1.8 °C -1.9 °C 1027.7 hPa Calm     76 % 0 mm WeatherDisplay:10.37 W/m2 FEW
04:09 1.7 °C -2.1 °C 1027.7 hPa Calm     76 % 0 mm WeatherDisplay:10.37 W/m2 FEW
04:14 1.6 °C -2.2 °C 1027.7 hPa Calm     76 % 0 mm WeatherDisplay:10.37 W/m2 FEW
04:19 1.5 °C -2.3 °C 1027.7 hPa Calm     76 % 0 mm WeatherDisplay:10.37 W/m2 FEW
04:24 1.4 °C -2.2 °C 1027.7 hPa Calm     77 % 0 mm WeatherDisplay:10.37 W/m2 FEW
04:29 1.3 °C -2.1 °C 1027.7 hPa Calm     78 % 0 mm WeatherDisplay:10.37 W/m2 FEW
04:34 1.2 °C -2.1 °C 1027.7 hPa Calm     79 % 0 mm WeatherDisplay:10.37 W/m2 FEW
04:39 1.1 °C -2.2 °C 1027.7 hPa Calm     79 % 0 mm WeatherDisplay:10.37 W/m2 FEW
04:44 0.9 °C -2.3 °C 1028 hPa Calm     79 % 0 mm WeatherDisplay:10.37 W/m2 FEW
04:49 0.8 °C -2.4 °C 1028 hPa Calm     79 % 0 mm WeatherDisplay:10.37 W/m2 FEW
04:54 0.8 °C -2.3 °C 1028 hPa Calm     80 % 0 mm WeatherDisplay:10.37 W/m2 FEW
04:59 0.7 °C -2.4 °C 1028 hPa Calm     80 % 0 mm WeatherDisplay:10.37 W/m2 FEW
05:04 0.6 °C -2.4 °C 1028 hPa Calm     80 % 0 mm WeatherDisplay:10.37 W/m2 FEW
05:09 0.5 °C -2.6 °C 1028 hPa Calm     80 % 0 mm WeatherDisplay:10.37 W/m2 FEW
05:14 0.4 °C -2.5 °C 1028 hPa Calm     81 % 0 mm WeatherDisplay:10.37 W/m2 FEW
05:19 0.3 °C -2.6 °C 1028 hPa Calm     81 % 0 mm WeatherDisplay:10.37 W/m2 FEW
05:24 0.2 °C -2.7 °C 1028 hPa Calm     81 % 0 mm WeatherDisplay:10.37 W/m2 FEW
05:29 0.1 °C -2.6 °C 1028 hPa Calm     82 % 0 mm WeatherDisplay:10.37 W/m2 FEW
05:34 0.1 °C -2.7 °C 1028 hPa Calm     82 % 0 mm WeatherDisplay:10.37 W/m2 FEW
05:39 0 °C -2.7 °C 1028.3 hPa Calm     82 % 0 mm WeatherDisplay:10.37 W/m2 FEW
05:44 -0.1 °C -2.6 °C 1028.3 hPa Calm     83 % 0 mm WeatherDisplay:10.37 W/m2 FEW
05:49 -0.1 °C -2.7 °C 1028.3 hPa Calm     83 % 0 mm WeatherDisplay:10.37 W/m2 FEW
05:54 -0.1 °C -2.7 °C 1028.7 hPa Calm     83 % 0 mm WeatherDisplay:10.37 W/m2 FEW
05:59 -0.2 °C -2.6 °C 1028.7 hPa Calm     84 % 0 mm WeatherDisplay:10.37 W/m2 FEW
06:04 -0.1 °C -2.5 °C 1029 hPa Calm   1.6 km/h 84 % 0 mm WeatherDisplay:10.37 W/m2 FEW
06:09 -0.1 °C -2.3 °C 1029 hPa Calm     85 % 0 mm WeatherDisplay:10.37 W/m2 FEW
06:14 0 °C -2.2 °C 1029 hPa Calm   1.6 km/h 85 % 0 mm WeatherDisplay:10.37 W/m2 FEW
06:19 0.1 °C -2.1 °C 1029 hPa Calm   1.6 km/h 85 % 0 mm WeatherDisplay:10.37 W/m2 FEW
06:24 0.2 °C -2 °C 1029.3 hPa Calm   3.2 km/h 85 % 0 mm WeatherDisplay:10.37 W/m2 FEW
06:29 0.4 °C -1.8 °C 1029.3 hPa Calm   3.2 km/h 85 % 0 mm WeatherDisplay:10.37 W/m2 FEW
06:34 0.6 °C -1.8 °C 1029.3 hPa Calm   1.6 km/h 84 % 0 mm WeatherDisplay:10.37 W/m2 FEW
06:39 0.7 °C -1.8 °C 1029.3 hPa Calm     83 % 0 mm WeatherDisplay:10.37 W/m2 FEW
06:44 0.9 °C -1.8 °C 1029.3 hPa Calm   1.6 km/h 82 % 0 mm WeatherDisplay:10.37 W/m2 FEW
06:49 1.2 °C -1.9 °C 1029.3 hPa Calm   3.2 km/h 80 % 0 mm WeatherDisplay:10.37 W/m2 FEW
06:54 1.4 °C -2 °C 1029.3 hPa Calm   3.2 km/h 78 % 0 mm WeatherDisplay:10.37 W/m2 FEW
06:59 1.8 °C -1.8 °C 1029.3 hPa Calm   1.6 km/h 77 % 0 mm WeatherDisplay:10.37 W/m2 FEW
07:04 2.2 °C -2 °C 1029.7 hPa Calm   4.8 km/h 74 % 0 mm WeatherDisplay:10.37 W/m2 FEW
07:09 2.6 °C -1.9 °C 1029.7 hPa Calm   1.6 km/h 72 % 0 mm WeatherDisplay:10.37 W/m2 FEW
07:14 2.9 °C -2 °C 1029.7 hPa Calm   3.2 km/h 70 % 0 mm WeatherDisplay:10.37 W/m2 FEW
07:19 3.4 °C -2.2 °C 1029.7 hPa Calm   4.8 km/h 67 % 0 mm WeatherDisplay:10.37 W/m2 FEW
07:24 3.9 °C -2.1 °C 1029.7 hPa Calm   3.2 km/h 65 % 0 mm WeatherDisplay:10.37 W/m2 FEW
07:29 4.4 °C -1.8 °C 1030 hPa Calm   3.2 km/h 64 % 0 mm WeatherDisplay:10.37 W/m2 FEW
07:34 4.9 °C -2.1 °C 1029.7 hPa Calm   3.2 km/h 61 % 0 mm WeatherDisplay:10.37 W/m2 FEW
07:39 5.3 °C -1.9 °C 1030 hPa Calm   3.2 km/h 60 % 0 mm WeatherDisplay:10.37 W/m2 FEW
07:44 5.6 °C -1.8 °C 1030 hPa Calm   1.6 km/h 59 % 0 mm WeatherDisplay:10.37 W/m2 FEW
07:49 5.9 °C -1.6 °C 1030 hPa Calm   4.8 km/h 59 % 0 mm WeatherDisplay:10.37 W/m2 FEW
07:54 6.2 °C -1.9 °C 1030 hPa Calm   8 km/h 56 % 0 mm WeatherDisplay:10.37 W/m2 FEW
07:59 6.6 °C -2.3 °C 1030 hPa Calm   4.8 km/h 53 % 0 mm WeatherDisplay:10.37 W/m2 FEW
08:04 6.8 °C -1.8 °C 1030 hPa Calm   1.6 km/h 54 % 0 mm WeatherDisplay:10.37 W/m2 FEW
08:09 7.1 °C -2.1 °C 1030.4 hPa Calm   3.2 km/h 52 % 0 mm WeatherDisplay:10.37 W/m2 FEW
08:14 7.3 °C -2.4 °C 1030.4 hPa Calm   6.4 km/h 50 % 0 mm WeatherDisplay:10.37 W/m2 FEW
08:19 7.6 °C -2.5 °C 1030.4 hPa Calm   3.2 km/h 49 % 0 mm WeatherDisplay:10.37 W/m2 FEW
08:24 7.7 °C -2.3 °C 1030.4 hPa Calm   4.8 km/h 49 % 0 mm WeatherDisplay:10.37 W/m2 FEW
08:29 7.9 °C -2.4 °C 1030.4 hPa Calm   4.8 km/h 48 % 0 mm WeatherDisplay:10.37 W/m2 FEW
08:34 8.2 °C -2.4 °C 1030.4 hPa ENE 1.6 km/h 3.2 km/h 47 % 0 mm WeatherDisplay:10.37 W/m2 FEW
08:39 8.4 °C -1.7 °C 1030.4 hPa Calm   3.2 km/h 49 % 0 mm WeatherDisplay:10.37 W/m2 FEW
08:44 8.6 °C -2.1 °C 1030.4 hPa Calm   6.4 km/h 47 % 0 mm WeatherDisplay:10.37 W/m2 FEW
08:49 8.8 °C -1.9 °C 1030.4 hPa Calm   1.6 km/h 47 % 0 mm WeatherDisplay:10.37 W/m2 FEW
08:54 9 °C -2.6 °C 1030.4 hPa East 3.2 km/h 9.7 km/h 44 % 0 mm WeatherDisplay:10.37 W/m2 FEW
08:59 9.1 °C -2.2 °C 1030.4 hPa Calm   4.8 km/h 45 % 0 mm WeatherDisplay:10.37 W/m2 FEW
09:04 9.3 °C -2.1 °C 1030.4 hPa Calm   4.8 km/h 45 % 0 mm WeatherDisplay:10.37 W/m2 FEW
09:09 9.4 °C -1.9 °C 1030.4 hPa Calm   4.8 km/h 45 % 0 mm WeatherDisplay:10.37 W/m2 FEW
09:14 9.4 °C -2.2 °C 1030.4 hPa ENE 1.6 km/h 6.4 km/h 44 % 0 mm WeatherDisplay:10.37 W/m2 FEW
09:19 9.6 °C -2.4 °C 1030.7 hPa Calm   4.8 km/h 43 % 0 mm WeatherDisplay:10.37 W/m2 FEW
09:24 9.9 °C -1.5 °C 1030.7 hPa Calm   3.2 km/h 45 % 0 mm WeatherDisplay:10.37 W/m2 FEW
09:29 10.2 °C -1.5 °C 1030.7 hPa Calm   4.8 km/h 44 % 0 mm WeatherDisplay:10.37 W/m2 FEW
09:34 10.5 °C -2.2 °C 1030.7 hPa Calm   4.8 km/h 41 % 0 mm WeatherDisplay:10.37 W/m2 FEW
09:39 10.8 °C -1.9 °C 1030.7 hPa Calm   3.2 km/h 41 % 0 mm WeatherDisplay:10.37 W/m2 FEW
09:44 11.1 °C -2.4 °C 1031 hPa Calm   8 km/h 39 % 0 mm WeatherDisplay:10.37 W/m2 FEW
09:49 11.3 °C -1.2 °C 1031 hPa Calm   3.2 km/h 42 % 0 mm WeatherDisplay:10.37 W/m2 FEW
09:54 11.6 °C -1.9 °C 1031 hPa ESE 1.6 km/h 8 km/h 39 % 0 mm WeatherDisplay:10.37 W/m2 FEW
09:59 11.8 °C -1.3 °C 1031 hPa ESE 1.6 km/h 6.4 km/h 40 % 0 mm WeatherDisplay:10.37 W/m2 FEW
10:04 12 °C -2.6 °C 1030.7 hPa ESE 1.6 km/h 11.3 km/h 36 % 0 mm WeatherDisplay:10.37 W/m2 FEW
10:09 12.1 °C -1.4 °C 1030.7 hPa East 1.6 km/h 8 km/h 39 % 0 mm WeatherDisplay:10.37 W/m2 FEW
10:14 12.2 °C -1.4 °C 1030.7 hPa Calm   3.2 km/h 39 % 0 mm WeatherDisplay:10.37 W/m2 FEW
10:19 12.4 °C -1.9 °C 1030.7 hPa Calm   6.4 km/h 37 % 0 mm WeatherDisplay:10.37 W/m2 FEW
10:24 12.7 °C -1.7 °C 1031 hPa Calm   11.3 km/h 37 % 0 mm WeatherDisplay:10.37 W/m2 FEW
10:34 12.8 °C -2.3 °C 1031 hPa Calm   12.9 km/h 35 % 0 mm WeatherDisplay:10.37 W/m2 FEW
10:39 12.7 °C -2 °C 1031 hPa East 1.6 km/h 9.7 km/h 36 % 0 mm WeatherDisplay:10.37 W/m2 FEW
10:44 12.9 °C -1.1 °C 1031 hPa Calm   1.6 km/h 38 % 0 mm WeatherDisplay:10.37 W/m2 FEW
10:49 13.2 °C -1.9 °C 1030.7 hPa East 1.6 km/h 4.8 km/h 35 % 0 mm WeatherDisplay:10.37 W/m2 FEW
10:54 13.4 °C -1.4 °C 1030.7 hPa Calm   4.8 km/h 36 % 0 mm WeatherDisplay:10.37 W/m2 FEW
10:59 13.6 °C -1.6 °C 1030.7 hPa Calm   8 km/h 35 % 0 mm WeatherDisplay:10.37 W/m2 FEW
11:04 13.7 °C -1.2 °C 1030.7 hPa Calm   4.8 km/h 36 % 0 mm WeatherDisplay:10.37 W/m2 FEW
11:09 13.8 °C -1 °C 1030.7 hPa Calm   9.7 km/h 36 % 0 mm WeatherDisplay:10.37 W/m2 FEW
11:14 13.9 °C -0.9 °C 1030.7 hPa ESE 1.6 km/h 8 km/h 36 % 0 mm WeatherDisplay:10.37 W/m2 FEW
11:19 13.7 °C -1.9 °C 1031 hPa SE 1.6 km/h 9.7 km/h 34 % 0 mm WeatherDisplay:10.37 W/m2 FEW
11:24 13.8 °C -1.8 °C 1031 hPa Calm   8 km/h 34 % 0 mm WeatherDisplay:10.37 W/m2 FEW
11:29 13.8 °C -2.2 °C 1031 hPa Calm   6.4 km/h 33 % 0 mm WeatherDisplay:10.37 W/m2 FEW
11:34 13.9 °C -1.7 °C 1031 hPa SSE 1.6 km/h 6.4 km/h 34 % 0 mm WeatherDisplay:10.37 W/m2 FEW
11:39 14 °C -1.2 °C 1031 hPa Calm   3.2 km/h 35 % 0 mm WeatherDisplay:10.37 W/m2 FEW
11:44 14.1 °C -2.4 °C 1031 hPa ESE 1.6 km/h 6.4 km/h 32 % 0 mm WeatherDisplay:10.37 W/m2 FEW
11:49 13.9 °C -2.5 °C 1030.7 hPa ESE 1.6 km/h 11.3 km/h 32 % 0 mm WeatherDisplay:10.37 W/m2 FEW
11:54 14.1 °C -1.6 °C 1030.7 hPa East 4.8 km/h 12.9 km/h 34 % 0 mm WeatherDisplay:10.37 W/m2 FEW
11:59 14.1 °C -1.9 °C 1030.7 hPa NNW 4.8 km/h 11.3 km/h 33 % 0 mm WeatherDisplay:10.37 W/m2 FEW
12:04 14.1 °C -1.2 °C 1030.7 hPa Calm   4.8 km/h 35 % 0 mm WeatherDisplay:10.37 W/m2 FEW
12:09 14.1 °C -1.6 °C 1030.7 hPa Calm   6.4 km/h 34 % 0 mm WeatherDisplay:10.37 W/m2 FEW
12:14 14.2 °C -1.4 °C 1030.7 hPa Calm   3.2 km/h 34 % 0 mm WeatherDisplay:10.37 W/m2 FEW
12:19 14.5 °C -1.2 °C 1030.7 hPa Calm   4.8 km/h 34 % 0 mm WeatherDisplay:10.37 W/m2 FEW
12:24 14.5 °C -2.4 °C 1030.4 hPa Calm   3.2 km/h 31 % 0 mm WeatherDisplay:10.37 W/m2 FEW
12:29 14.6 °C -1.6 °C 1030.4 hPa East 1.6 km/h 9.7 km/h 33 % 0 mm WeatherDisplay:10.37 W/m2 FEW
12:34 14.6 °C -1.9 °C 1030.4 hPa Calm   8 km/h 32 % 0 mm WeatherDisplay:10.37 W/m2 FEW
12:39 14.7 °C -1.8 °C 1030.4 hPa Calm   8 km/h 32 % 0 mm WeatherDisplay:10.37 W/m2 FEW
12:44 14.9 °C -0.8 °C 1030.4 hPa Calm   1.6 km/h 34 % 0 mm WeatherDisplay:10.37 W/m2 FEW
12:49 15.1 °C -1.9 °C 1030 hPa Calm   6.4 km/h 31 % 0 mm WeatherDisplay:10.37 W/m2 FEW
12:54 15.2 °C -1.4 °C 1030 hPa Calm   4.8 km/h 32 % 0 mm WeatherDisplay:10.37 W/m2 FEW
12:59 15.3 °C -2.2 °C 1030 hPa Calm   3.2 km/h 30 % 0 mm WeatherDisplay:10.37 W/m2 FEW
13:04 15.4 °C -1.6 °C 1030 hPa Calm   6.4 km/h 31 % 0 mm WeatherDisplay:10.37 W/m2 FEW
13:09 15.6 °C -1.1 °C 1030 hPa East 1.6 km/h 4.8 km/h 32 % 0 mm WeatherDisplay:10.37 W/m2 FEW
13:14 15.7 °C -0.6 °C 1030 hPa Calm   4.8 km/h 33 % 0 mm WeatherDisplay:10.37 W/m2 FEW
13:19 15.7 °C -1.4 °C 1030 hPa SE 1.6 km/h 8 km/h 31 % 0 mm WeatherDisplay:10.37 W/m2 FEW
13:24 15.7 °C -2.3 °C 1030 hPa Calm   4.8 km/h 29 % 0 mm WeatherDisplay:10.37 W/m2 FEW
13:29 15.6 °C -1.5 °C 1030 hPa Calm   6.4 km/h 31 % 0 mm WeatherDisplay:10.37 W/m2 FEW
13:34 15.7 °C -1.9 °C 1030 hPa North 8 km/h 12.9 km/h 30 % 0 mm WeatherDisplay:10.37 W/m2 FEW
13:39 15.7 °C -1.4 °C 1030 hPa Calm   4.8 km/h 31 % 0 mm WeatherDisplay:10.37 W/m2 FEW
13:44 15.7 °C -1.4 °C 1029.7 hPa East 1.6 km/h 9.7 km/h 31 % 0 mm WeatherDisplay:10.37 W/m2 FEW
13:49 15.7 °C -1.8 °C 1029.7 hPa Calm   3.2 km/h 30 % 0 mm WeatherDisplay:10.37 W/m2 FEW
13:54 15.8 °C -1.3 °C 1029.7 hPa Calm   6.4 km/h 31 % 0 mm WeatherDisplay:10.37 W/m2 FEW
13:59 16 °C -2.1 °C 1029.7 hPa Calm   6.4 km/h 29 % 0 mm WeatherDisplay:10.37 W/m2 FEW
14:04 16.2 °C -1.9 °C 1029.7 hPa SSW 3.2 km/h 11.3 km/h 29 % 0 mm WeatherDisplay:10.37 W/m2 FEW
14:09 16.3 °C -1.7 °C 1029.7 hPa SSE 1.6 km/h 6.4 km/h 29 % 0 mm WeatherDisplay:10.37 W/m2 FEW
14:14 16.5 °C -1.6 °C 1029.3 hPa SE 1.6 km/h 4.8 km/h 29 % 0 mm WeatherDisplay:10.37 W/m2 FEW
14:19 16.6 °C -1.1 °C 1029.3 hPa Calm   9.7 km/h 30 % 0 mm WeatherDisplay:10.37 W/m2 FEW
14:24 16.5 °C -1.6 °C 1029.3 hPa Calm   9.7 km/h 29 % 0 mm WeatherDisplay:10.37 W/m2 FEW
14:29 16.4 °C -2.2 °C 1029.3 hPa Calm   3.2 km/h 28 % 0 mm WeatherDisplay:10.37 W/m2 FEW
14:34 16.4 °C -2.1 °C 1029.3 hPa ESE 1.6 km/h 9.7 km/h 28 % 0 mm WeatherDisplay:10.37 W/m2 FEW
14:39 16.6 °C -1.6 °C 1029 hPa Calm   4.8 km/h 29 % 0 mm WeatherDisplay:10.37 W/m2 FEW
14:44 16.7 °C -1.4 °C 1029 hPa Calm   4.8 km/h 29 % 0 mm WeatherDisplay:10.37 W/m2 FEW
14:49 16.8 °C -1.8 °C 1029 hPa Calm   6.4 km/h 28 % 0 mm WeatherDisplay:10.37 W/m2 FEW
14:54 16.9 °C -2.3 °C 1029 hPa Calm   8 km/h 27 % 0 mm WeatherDisplay:10.37 W/m2 FEW
14:59 17 °C -2.2 °C 1029 hPa SE 1.6 km/h 6.4 km/h 27 % 0 mm WeatherDisplay:10.37 W/m2 FEW
15:04 17 °C -2.2 °C 1029 hPa SE 3.2 km/h 11.3 km/h 27 % 0 mm WeatherDisplay:10.37 W/m2 FEW
15:09 17.1 °C -2.1 °C 1029 hPa Calm   4.8 km/h 27 % 0 mm WeatherDisplay:10.37 W/m2 FEW
15:14 17.2 °C -2.5 °C 1029 hPa Calm   3.2 km/h 26 % 0 mm WeatherDisplay:10.37 W/m2 FEW
15:19 17.2 °C -2.4 °C 1029 hPa NNE 1.6 km/h 6.4 km/h 26 % 0 mm WeatherDisplay:10.37 W/m2 FEW
15:24 17.3 °C -2.4 °C 1029 hPa Calm   8 km/h 26 % 0 mm WeatherDisplay:10.37 W/m2 FEW
15:29 17.3 °C -1.9 °C 1029 hPa Calm   6.4 km/h 27 % 0 mm WeatherDisplay:10.37 W/m2 FEW
15:34 17.3 °C -2.4 °C 1028.7 hPa Calm   4.8 km/h 26 % 0 mm WeatherDisplay:10.37 W/m2 FEW
15:39 17.3 °C -2.4 °C 1028.7 hPa Calm   1.6 km/h 26 % 0 mm WeatherDisplay:10.37 W/m2 FEW
15:44 17.3 °C -2.9 °C 1028.7 hPa ESE 3.2 km/h 6.4 km/h 25 % 0 mm WeatherDisplay:10.37 W/m2 FEW
15:49 17.2 °C -1.9 °C 1028.7 hPa Calm   3.2 km/h 27 % 0 mm WeatherDisplay:10.37 W/m2 FEW
15:54 17.2 °C -3 °C 1028.7 hPa Calm     25 % 0 mm WeatherDisplay:10.37 W/m2 FEW
15:59 17.2 °C -3 °C 1028.3 hPa Calm   4.8 km/h 25 % 0 mm WeatherDisplay:10.37 W/m2 FEW
16:04 17.3 °C -2.4 °C 1028.3 hPa Calm   4.8 km/h 26 % 0 mm WeatherDisplay:10.37 W/m2 FEW
16:09 17.3 °C -2.9 °C 1028.3 hPa ESE 1.6 km/h 4.8 km/h 25 % 0 mm WeatherDisplay:10.37 W/m2 FEW
16:14 17.3 °C -3.5 °C 1028 hPa Calm   9.7 km/h 24 % 0 mm WeatherDisplay:10.37 W/m2 FEW
16:19 17.3 °C -2.4 °C 1028 hPa Calm   9.7 km/h 26 % 0 mm WeatherDisplay:10.37 W/m2 FEW
16:24 17.2 °C -2.5 °C 1028 hPa Calm   4.8 km/h 26 % 0 mm WeatherDisplay:10.37 W/m2 FEW
16:29 17.2 °C -3.6 °C 1028 hPa Calm   1.6 km/h 24 % 0 mm WeatherDisplay:10.37 W/m2 FEW
16:34 17.2 °C -3.1 °C 1028 hPa Calm   1.6 km/h 25 % 0 mm WeatherDisplay:10.37 W/m2 FEW
16:39 17.2 °C -3 °C 1028 hPa Calm   1.6 km/h 25 % 0 mm WeatherDisplay:10.37 W/m2 FEW
16:44 17.2 °C -3 °C 1027.7 hPa Calm   4.8 km/h 25 % 0 mm WeatherDisplay:10.37 W/m2 FEW
16:49 17.2 °C -3.1 °C 1027.7 hPa Calm   4.8 km/h 25 % 0 mm WeatherDisplay:10.37 W/m2 FEW
16:54 17.1 °C -3.1 °C 1027.7 hPa Calm   3.2 km/h 25 % 0 mm WeatherDisplay:10.37 W/m2 FEW
16:59 17.1 °C -2.6 °C 1027.7 hPa Calm     26 % 0 mm WeatherDisplay:10.37 W/m2 FEW
17:04 17.2 °C -3.6 °C 1027.7 hPa Calm   4.8 km/h 24 % 0 mm WeatherDisplay:10.37 W/m2 FEW
17:09 17.2 °C -3.6 °C 1027.7 hPa Calm   3.2 km/h 24 % 0 mm WeatherDisplay:10.37 W/m2 FEW
17:14 17.3 °C -2.9 °C 1027.7 hPa Calm   1.6 km/h 25 % 0 mm WeatherDisplay:10.37 W/m2 FEW
17:19 17.3 °C -2.4 °C 1027.7 hPa Calm   4.8 km/h 26 % 0 mm WeatherDisplay:10.37 W/m2 FEW
17:24 17.3 °C -2.4 °C 1027.7 hPa Calm   1.6 km/h 26 % 0 mm WeatherDisplay:10.37 W/m2 FEW
17:29 17.5 °C -2.3 °C 1027.7 hPa Calm   8 km/h 26 % 0 mm WeatherDisplay:10.37 W/m2 FEW
17:34 17.4 °C -1.3 °C 1027.7 hPa Calm   4.8 km/h 28 % 0 mm WeatherDisplay:10.37 W/m2 FEW
17:39 17.4 °C -1.8 °C 1027.7 hPa Calm     27 % 0 mm WeatherDisplay:10.37 W/m2 FEW
17:44 17.5 °C -1.2 °C 1027.7 hPa Calm   4.8 km/h 28 % 0 mm WeatherDisplay:10.37 W/m2 FEW
17:49 17.5 °C -1.7 °C 1027.7 hPa Calm   4.8 km/h 27 % 0 mm WeatherDisplay:10.37 W/m2 FEW
17:54 17.4 °C -1.3 °C 1027.7 hPa Calm   4.8 km/h 28 % 0 mm WeatherDisplay:10.37 W/m2 FEW
17:59 17.2 °C -1.4 °C 1027.7 hPa Calm     28 % 0 mm WeatherDisplay:10.37 W/m2 FEW
18:04 17.2 °C -1.5 °C 1027.7 hPa Calm   1.6 km/h 28 % 0 mm WeatherDisplay:10.37 W/m2 FEW
18:09 17 °C -1.7 °C 1027.7 hPa Calm   1.6 km/h 28 % 0 mm WeatherDisplay:10.37 W/m2 FEW
18:14 16.9 °C -1.8 °C 1027.7 hPa Calm   4.8 km/h 28 % 0 mm WeatherDisplay:10.37 W/m2 FEW
18:19 16.8 °C -1.4 °C 1027.7 hPa Calm   1.6 km/h 29 % 0 mm WeatherDisplay:10.37 W/m2 FEW
18:24 16.7 °C -1.9 °C 1027.7 hPa Calm     28 % 0 mm WeatherDisplay:10.37 W/m2 FEW
18:29 16.6 °C -1.5 °C 1027.7 hPa Calm   4.8 km/h 29 % 0 mm WeatherDisplay:10.37 W/m2 FEW
18:34 16.5 °C -1.2 °C 1027.3 hPa Calm   3.2 km/h 30 % 0 mm WeatherDisplay:10.37 W/m2 FEW
18:39 16.4 °C -1.2 °C 1027.3 hPa Calm   3.2 km/h 30 % 0 mm WeatherDisplay:10.37 W/m2 FEW
18:44 16.4 °C -1.7 °C 1027.3 hPa Calm     29 % 0 mm WeatherDisplay:10.37 W/m2 FEW
18:49 16.4 °C -1.3 °C 1027.3 hPa Calm   1.6 km/h 30 % 0 mm WeatherDisplay:10.37 W/m2 FEW
18:54 16.3 °C -1.8 °C 1027.3 hPa Calm   3.2 km/h 29 % 0 mm WeatherDisplay:10.37 W/m2 FEW
18:59 16.3 °C -0.9 °C 1027.3 hPa Calm   3.2 km/h 31 % 0 mm WeatherDisplay:10.37 W/m2 FEW
19:04 16.2 °C -1.4 °C 1027.3 hPa Calm   3.2 km/h 30 % 0 mm WeatherDisplay:10.37 W/m2 FEW
19:09 16.1 °C -1.1 °C 1027.3 hPa Calm   1.6 km/h 31 % 0 mm WeatherDisplay:10.37 W/m2 FEW
19:14 16 °C -1.2 °C 1027.3 hPa Calm     31 % 0 mm WeatherDisplay:10.37 W/m2 FEW
19:19 15.9 °C -1.2 °C 1027.3 hPa Calm   3.2 km/h 31 % 0 mm WeatherDisplay:10.37 W/m2 FEW
19:24 15.8 °C -1.3 °C 1027.3 hPa Calm   6.4 km/h 31 % 0 mm WeatherDisplay:10.37 W/m2 FEW
19:29 15.7 °C -1.4 °C 1027.7 hPa Calm   4.8 km/h 31 % 0 mm WeatherDisplay:10.37 W/m2 FEW
19:34 15.6 °C -1.1 °C 1027.7 hPa Calm     32 % 0 mm WeatherDisplay:10.37 W/m2 FEW
19:39 15.4 °C -1.2 °C 1027.3 hPa Calm     32 % 0 mm WeatherDisplay:10.37 W/m2 FEW
19:44 15.3 °C -0.9 °C 1027.7 hPa Calm     33 % 0 mm WeatherDisplay:10.37 W/m2 FEW
19:49 15.2 °C -0.6 °C 1027.7 hPa Calm     34 % 0 mm WeatherDisplay:10.37 W/m2 FEW
19:54 15 °C -0.8 °C 1027.3 hPa Calm     34 % 0 mm WeatherDisplay:10.37 W/m2 FEW
19:59 14.8 °C -0.9 °C 1027.3 hPa Calm     34 % 0 mm WeatherDisplay:10.37 W/m2 FEW
20:04 14.6 °C -0.7 °C 1027.3 hPa Calm   1.6 km/h 35 % 0 mm WeatherDisplay:10.37 W/m2 FEW
20:09 14.4 °C -0.9 °C 1027.3 hPa Calm     35 % 0 mm WeatherDisplay:10.37 W/m2 FEW
20:14 14.1 °C -0.4 °C 1027.7 hPa Calm     37 % 0 mm WeatherDisplay:10.37 W/m2 FEW
20:19 13.7 °C -0.4 °C 1027.3 hPa Calm     38 % 0 mm WeatherDisplay:10.37 W/m2 FEW
20:24 13.4 °C -0.7 °C 1027.3 hPa Calm     38 % 0 mm WeatherDisplay:10.37 W/m2 FEW
20:29 13.1 °C 0.1 °C 1027.3 hPa Calm     41 % 0 mm WeatherDisplay:10.37 W/m2 FEW
20:34 12.7 °C -0.9 °C 1027.3 hPa Calm     39 % 0 mm WeatherDisplay:10.37 W/m2 FEW
20:39 12.4 °C -0.4 °C 1027.3 hPa Calm     41 % 0 mm WeatherDisplay:10.37 W/m2 FEW
20:44 12.1 °C -0.7 °C 1027.3 hPa Calm     41 % 0 mm WeatherDisplay:10.37 W/m2 FEW
20:49 11.7 °C -0.4 °C 1027.3 hPa Calm     43 % 0 mm WeatherDisplay:10.37 W/m2 FEW
20:54 11.4 °C -0.4 °C 1027.3 hPa Calm     44 % 0 mm WeatherDisplay:10.37 W/m2 FEW
20:59 11.2 °C -0.3 °C 1027.3 hPa Calm     45 % 0 mm WeatherDisplay:10.37 W/m2 FEW
21:04 10.9 °C -0.6 °C 1027.3 hPa Calm     45 % 0 mm WeatherDisplay:10.37 W/m2 FEW
21:09 10.6 °C -0.9 °C 1027.3 hPa Calm     45 % 0 mm WeatherDisplay:10.37 W/m2 FEW
21:14 10.3 °C -0.3 °C 1027.3 hPa Calm     48 % 0 mm WeatherDisplay:10.37 W/m2 FEW
21:19 10 °C -0.2 °C 1027.3 hPa Calm     49 % 0 mm WeatherDisplay:10.37 W/m2 FEW
21:24 9.8 °C -0.2 °C 1027.3 hPa Calm     50 % 0 mm WeatherDisplay:10.37 W/m2 FEW
21:29 9.6 °C -0.1 °C 1027.3 hPa Calm     51 % 0 mm WeatherDisplay:10.37 W/m2 FEW
21:34 9.4 °C 0.3 °C 1027.3 hPa Calm     53 % 0 mm WeatherDisplay:10.37 W/m2 FEW
21:39 9.1 °C 1.1 °C 1027.7 hPa Calm     57 % 0 mm WeatherDisplay:10.37 W/m2 FEW
21:44 8.9 °C 1.1 °C 1027.7 hPa Calm     58 % 0 mm WeatherDisplay:10.37 W/m2 FEW
21:49 8.7 °C 1.1 °C 1027.7 hPa Calm     59 % 0 mm WeatherDisplay:10.37 W/m2 FEW
21:54 8.5 °C 0.7 °C 1027.7 hPa Calm     58 % 0 mm WeatherDisplay:10.37 W/m2 FEW
21:59 8.3 °C 0.6 °C 1027.7 hPa Calm     58 % 0 mm WeatherDisplay:10.37 W/m2 FEW
22:04 8.2 °C 0.4 °C 1027.7 hPa Calm     58 % 0 mm WeatherDisplay:10.37 W/m2 FEW
22:09 8 °C 0.5 °C 1027.7 hPa Calm     59 % 0 mm WeatherDisplay:10.37 W/m2 FEW
22:14 7.8 °C 0.3 °C 1027.7 hPa Calm     59 % 0 mm WeatherDisplay:10.37 W/m2 FEW
22:19 7.7 °C 0.4 °C 1027.7 hPa Calm     60 % 0 mm WeatherDisplay:10.37 W/m2 FEW
22:24 7.5 °C 0.2 °C 1027.7 hPa Calm     60 % 0 mm WeatherDisplay:10.37 W/m2 FEW
22:29 7.3 °C 0.7 °C 1027.7 hPa Calm     63 % 0 mm WeatherDisplay:10.37 W/m2 FEW
22:34 7 °C 1.1 °C 1027.7 hPa Calm     66 % 0 mm WeatherDisplay:10.37 W/m2 FEW
22:39 6.8 °C 0.9 °C 1027.7 hPa Calm     66 % 0 mm WeatherDisplay:10.37 W/m2 FEW
22:44 6.7 °C 0.8 °C 1027.7 hPa Calm     66 % 0 mm WeatherDisplay:10.37 W/m2 FEW
22:49 6.5 °C 0.6 °C 1027.7 hPa Calm     66 % 0 mm WeatherDisplay:10.37 W/m2 FEW
22:54 6.4 °C 0.3 °C 1027.7 hPa Calm     65 % 0 mm WeatherDisplay:10.37 W/m2 FEW
22:59 6.2 °C 0.1 °C 1027.7 hPa Calm     65 % 0 mm WeatherDisplay:10.37 W/m2 FEW
23:04 6.1 °C 0 °C 1027.7 hPa Calm     65 % 0 mm WeatherDisplay:10.37 W/m2 FEW
23:09 6 °C -0.1 °C 1027.7 hPa Calm     65 % 0 mm WeatherDisplay:10.37 W/m2 FEW
23:14 5.8 °C -0.2 °C 1027.3 hPa Calm     65 % 0 mm WeatherDisplay:10.37 W/m2 FEW
23:19 5.7 °C -0.3 °C 1027.3 hPa Calm     65 % 0 mm WeatherDisplay:10.37 W/m2 FEW
23:24 5.6 °C -0.2 °C 1027.3 hPa Calm     66 % 0 mm WeatherDisplay:10.37 W/m2 FEW
23:29 5.4 °C -0.2 °C 1027.3 hPa Calm     67 % 0 mm WeatherDisplay:10.37 W/m2 FEW
23:34 5.3 °C -0.3 °C 1027.3 hPa Calm     67 % 0 mm WeatherDisplay:10.37 W/m2 FEW
23:39 5.2 °C -0.2 °C 1027.3 hPa Calm     68 % 0 mm WeatherDisplay:10.37 W/m2 FEW
23:44 5.1 °C -0.3 °C 1027.3 hPa Calm     68 % 0 mm WeatherDisplay:10.37 W/m2 FEW
23:49 5 °C -0.2 °C 1027.3 hPa Calm     69 % 0 mm WeatherDisplay:10.37 W/m2 FEW
23:54 4.9 °C -0.3 °C 1027.3 hPa Calm     69 % 0 mm WeatherDisplay:10.37 W/m2 FEW
23:59 4.8 °C -0.4 °C 1027.3 hPa Calm     69 % 0 mm WeatherDisplay:10.37 W/m2 FEW
Juneau County Weather
Compliments of Weather Underground - 3 mb